createdAt,value
2023-02-11T00:00:45.060Z,4.01
2023-02-11T00:01:45.107Z,4.02
2023-02-11T00:02:47.758Z,3.88
2023-02-11T00:03:45.174Z,3.92
2023-02-11T00:04:45.131Z,3.95
2023-02-11T00:05:45.051Z,3.96
2023-02-11T00:06:45.080Z,3.98
2023-02-11T00:07:45.099Z,3.93
2023-02-11T00:08:45.067Z,3.92
2023-02-11T00:09:45.054Z,3.89
2023-02-11T00:10:45.033Z,3.84
2023-02-11T00:11:45.038Z,3.87
2023-02-11T00:12:45.009Z,3.91
2023-02-11T00:13:45.016Z,3.87
2023-02-11T00:14:45.030Z,3.87
2023-02-11T00:15:45.024Z,3.83
2023-02-11T00:16:45.128Z,3.88
2023-02-11T00:17:44.985Z,3.87
2023-02-11T00:18:45.005Z,3.84
2023-02-11T00:19:45.018Z,3.87
2023-02-11T00:20:45.003Z,3.84
2023-02-11T00:21:44.988Z,3.82
2023-02-11T00:22:44.973Z,3.84
2023-02-11T00:23:44.962Z,3.83
2023-02-11T00:24:44.920Z,3.75
2023-02-11T00:25:44.970Z,3.77
2023-02-11T00:26:44.942Z,3.76
2023-02-11T00:27:44.939Z,3.80
2023-02-11T00:28:44.899Z,3.79
2023-02-11T00:29:44.945Z,3.79
2023-02-11T00:30:45.057Z,3.82
2023-02-11T00:31:45.129Z,3.76
2023-02-11T00:32:44.918Z,3.80
2023-02-11T00:33:44.879Z,3.81
2023-02-11T00:34:44.879Z,3.76
2023-02-11T00:35:44.871Z,3.77
2023-02-11T00:36:44.880Z,3.73
2023-02-11T00:39:44.866Z,3.73
2023-02-11T00:40:44.862Z,3.74
2023-02-11T00:41:44.836Z,3.73
2023-02-11T00:42:44.884Z,3.72
2023-02-11T00:43:44.817Z,3.64
2023-02-11T00:44:44.846Z,3.65
2023-02-11T00:45:44.928Z,3.65
2023-02-11T00:46:44.864Z,3.66
2023-02-11T00:47:44.761Z,3.67
2023-02-11T00:48:44.763Z,3.64
2023-02-11T00:49:44.768Z,3.64
2023-02-11T00:50:44.786Z,3.62
2023-02-11T00:51:44.778Z,3.66
2023-02-11T00:52:44.729Z,3.69
2023-02-11T00:53:44.755Z,3.67
2023-02-11T00:54:44.753Z,3.60
2023-02-11T00:55:44.761Z,3.70
2023-02-11T00:56:44.723Z,3.58
2023-02-11T00:57:44.726Z,3.59
2023-02-11T00:58:44.697Z,3.63
2023-02-11T00:59:44.713Z,3.63
2023-02-11T01:00:44.699Z,3.59
2023-02-11T01:01:44.708Z,3.57
2023-02-11T01:02:44.732Z,3.54
2023-02-11T01:03:44.692Z,3.62
2023-02-11T01:04:44.683Z,3.63
2023-02-11T01:05:44.635Z,3.53
2023-02-11T01:06:44.653Z,3.61
2023-02-11T01:07:44.658Z,3.55
2023-02-11T01:08:44.675Z,3.49
2023-02-11T01:09:44.624Z,3.51
2023-02-11T01:10:44.614Z,3.48
2023-02-11T01:11:44.644Z,3.52
2023-02-11T01:12:44.603Z,3.53
2023-02-11T01:13:44.591Z,3.48
2023-02-11T01:14:44.610Z,3.49
2023-02-11T01:15:44.588Z,3.54
2023-02-11T01:16:44.589Z,3.46
2023-02-11T01:17:45.195Z,3.52
2023-02-11T01:18:44.587Z,3.52
2023-02-11T01:19:44.572Z,3.50
2023-02-11T01:20:44.553Z,3.51
2023-02-11T01:22:44.519Z,3.49
2023-02-11T01:23:44.654Z,3.50
2023-02-11T01:24:44.518Z,3.47
2023-02-11T01:25:44.520Z,3.49
2023-02-11T01:26:44.540Z,3.46
2023-02-11T01:27:44.560Z,3.48
2023-02-11T01:28:44.513Z,3.47
2023-02-11T01:29:44.518Z,3.46
2023-02-11T01:30:44.513Z,3.41
2023-02-11T01:31:44.561Z,3.42
2023-02-11T01:32:44.456Z,3.35
2023-02-11T01:33:44.468Z,3.35
2023-02-11T01:34:44.485Z,3.38
2023-02-11T01:35:44.458Z,3.37
2023-02-11T01:36:44.463Z,3.37
2023-02-11T01:37:44.420Z,3.34
2023-02-11T01:38:44.471Z,3.40
2023-02-11T01:39:44.462Z,3.40
2023-02-11T01:40:44.402Z,3.34
2023-02-11T01:41:44.450Z,3.37
2023-02-11T01:42:44.441Z,3.39
2023-02-11T01:43:44.402Z,3.32
2023-02-11T01:44:44.409Z,3.37
2023-02-11T01:45:44.422Z,3.34
2023-02-11T01:46:44.409Z,3.28
2023-02-11T01:47:44.355Z,3.36
2023-02-11T01:48:44.396Z,3.31
2023-02-11T01:49:44.381Z,3.33
2023-02-11T01:50:44.356Z,3.26
2023-02-11T01:51:44.357Z,3.35
2023-02-11T02:01:44.294Z,3.21
2023-02-11T02:02:44.299Z,3.21
2023-02-11T02:03:44.304Z,3.27
2023-02-11T02:04:44.262Z,3.28
2023-02-11T02:05:44.294Z,3.25
2023-02-11T02:06:44.258Z,3.25
2023-02-11T02:07:44.268Z,3.19
2023-02-11T02:08:44.274Z,3.26
2023-02-11T02:09:44.251Z,3.17
2023-02-11T02:10:44.242Z,3.18
2023-02-11T02:11:44.238Z,3.26
2023-02-11T02:12:44.230Z,3.22
2023-02-11T02:13:44.243Z,3.14
2023-02-11T02:14:44.206Z,3.18
2023-02-11T02:15:44.231Z,3.17
2023-02-11T02:16:44.217Z,3.19
2023-02-11T02:17:44.195Z,3.17
2023-02-11T02:18:44.172Z,3.12
2023-02-11T02:19:44.175Z,3.16
2023-02-11T02:20:44.184Z,3.19
2023-02-11T02:21:44.190Z,3.19
2023-02-11T02:22:44.151Z,3.17
2023-02-11T02:23:44.227Z,3.18
2023-02-11T02:24:44.166Z,3.11
2023-02-11T02:25:44.129Z,3.19
2023-02-11T02:26:44.132Z,3.18
2023-02-11T02:27:44.133Z,3.13
2023-02-11T02:28:44.100Z,3.06
2023-02-11T02:29:44.145Z,3.16
2023-02-11T02:30:44.105Z,3.10
2023-02-11T02:31:44.227Z,3.09
2023-02-11T02:32:44.092Z,3.15
2023-02-11T02:33:44.059Z,3.07
2023-02-11T02:34:44.073Z,3.16
2023-02-11T02:35:44.041Z,3.10
2023-02-11T02:36:44.050Z,3.09
2023-02-11T02:37:44.052Z,3.08
2023-02-11T02:38:44.025Z,3.13
2023-02-11T02:39:44.026Z,3.09
2023-02-11T02:40:44.006Z,3.07
2023-02-11T02:41:44.023Z,3.06
2023-02-11T02:42:44.021Z,3.05
2023-02-11T02:43:44.047Z,3.15
2023-02-11T02:44:44.045Z,3.07
2023-02-11T02:45:44.049Z,3.07
2023-02-11T02:46:44.083Z,3.06
2023-02-11T02:47:44.069Z,3.07
2023-02-11T02:48:44.070Z,3.02
2023-02-11T02:49:44.074Z,2.99
2023-02-11T02:50:44.099Z,3.06
2023-02-11T02:57:44.186Z,2.96
2023-02-11T02:58:46.772Z,3.04
2023-02-11T02:59:44.175Z,2.99
2023-02-11T03:00:44.337Z,2.90
2023-02-11T03:01:44.228Z,3.00
2023-02-11T03:02:44.157Z,2.97
2023-02-11T03:03:44.185Z,2.93
2023-02-11T03:04:44.153Z,2.96
2023-02-11T03:05:44.114Z,2.96
2023-02-11T03:06:44.146Z,2.98
2023-02-11T03:07:44.108Z,2.92
2023-02-11T03:08:44.101Z,2.92
2023-02-11T03:09:44.117Z,2.90
2023-02-11T03:10:44.110Z,2.90
2023-02-11T03:11:44.124Z,2.98
2023-02-11T03:12:44.102Z,2.89
2023-02-11T03:13:44.066Z,2.97
2023-02-11T03:14:44.074Z,2.87
2023-02-11T03:15:44.124Z,2.96
2023-02-11T03:16:44.055Z,2.88
2023-02-11T03:17:44.061Z,2.88
2023-02-11T03:18:44.021Z,2.85
2023-02-11T03:19:44.026Z,2.86
2023-02-11T03:20:44.083Z,2.90
2023-02-11T03:21:44.039Z,2.89
2023-02-11T03:22:44.010Z,2.82
2023-02-11T03:23:43.995Z,2.92
2023-02-11T03:24:44.037Z,2.87
2023-02-11T03:25:44.017Z,2.84
2023-02-11T03:26:44.020Z,2.83
2023-02-11T03:27:44.013Z,2.83
2023-02-11T03:28:43.995Z,2.88
2023-02-11T03:29:43.962Z,2.80
2023-02-11T03:30:44.010Z,2.87
2023-02-11T03:33:43.944Z,2.80
2023-02-11T03:34:43.921Z,2.88
2023-02-11T03:35:43.977Z,2.86
2023-02-11T03:36:43.926Z,2.83
2023-02-11T03:37:43.944Z,2.79
2023-02-11T03:43:43.896Z,2.82
2023-02-11T03:44:43.860Z,2.82
2023-02-11T03:45:43.889Z,2.74
2023-02-11T03:46:43.892Z,2.74
2023-02-11T03:47:43.863Z,2.78
2023-02-11T03:48:43.861Z,2.76
2023-02-11T03:49:43.870Z,2.85
2023-02-11T03:50:43.831Z,2.83
2023-02-11T03:51:43.822Z,2.75
2023-02-11T03:52:43.833Z,2.76
2023-02-11T03:53:43.788Z,2.71
2023-02-11T03:54:43.793Z,2.75
2023-02-11T03:55:43.838Z,2.78
2023-02-11T03:56:43.763Z,2.70
2023-02-11T03:57:43.831Z,2.68
2023-02-11T03:58:43.780Z,2.74
2023-02-11T03:59:43.793Z,2.74
2023-02-11T04:00:43.798Z,2.71
2023-02-11T04:01:43.806Z,2.75
2023-02-11T04:03:43.763Z,2.71
2023-02-11T04:04:43.713Z,2.74
2023-02-11T04:05:43.732Z,2.67
2023-02-11T04:06:43.731Z,2.72
2023-02-11T04:08:43.750Z,2.73
2023-02-11T04:28:43.588Z,2.60
2023-02-11T04:30:43.617Z,2.56
2023-02-11T04:31:43.648Z,2.59
2023-02-11T04:32:43.610Z,2.60
2023-02-11T04:33:43.864Z,2.58
2023-02-11T04:34:43.564Z,2.59
2023-02-11T04:35:43.573Z,2.59
2023-02-11T04:36:43.588Z,2.57
2023-02-11T04:37:43.625Z,2.58
2023-02-11T04:38:43.638Z,2.52
2023-02-11T04:39:43.649Z,2.53
2023-02-11T04:40:43.716Z,2.53
2023-02-11T04:41:43.724Z,2.57
2023-02-11T04:42:43.735Z,2.53
2023-02-11T04:43:43.754Z,2.52
2023-02-11T04:44:43.779Z,2.56
2023-02-11T04:45:43.841Z,2.57
2023-02-11T04:46:43.804Z,2.56
2023-02-11T04:47:43.872Z,2.53
2023-02-11T04:48:43.918Z,2.53
2023-02-11T04:49:43.929Z,2.50
2023-02-11T04:50:43.926Z,2.51
2023-02-11T04:51:43.948Z,2.53
2023-02-11T04:52:43.994Z,2.48
2023-02-11T04:53:44.008Z,2.49
2023-02-11T04:54:44.062Z,2.52
2023-02-11T04:55:44.064Z,2.48
2023-02-11T04:58:44.164Z,2.45
2023-02-11T04:59:44.160Z,2.44
2023-02-11T05:00:44.184Z,2.45
2023-02-11T05:01:44.261Z,2.49
2023-02-11T05:02:44.265Z,2.48
2023-02-11T05:03:44.343Z,2.48
2023-02-11T05:04:44.305Z,2.42
2023-02-11T05:05:44.414Z,2.43
2023-02-11T05:07:44.364Z,2.42
2023-02-11T05:08:44.445Z,2.45
2023-02-11T05:09:44.400Z,2.40
2023-02-11T05:10:44.446Z,2.43
2023-02-11T05:12:44.460Z,2.40
2023-02-11T05:17:44.615Z,2.39
2023-02-11T05:18:44.703Z,2.40
2023-02-11T05:19:44.638Z,2.43
2023-02-11T05:20:44.677Z,2.40
2023-02-11T05:22:00.279Z,2.39
2023-02-11T05:22:45.690Z,2.39
2023-02-11T05:23:44.671Z,2.39
2023-02-11T05:24:44.677Z,2.39
2023-02-11T05:25:44.693Z,2.40
2023-02-11T05:26:44.730Z,2.36
2023-02-11T05:27:44.669Z,2.42
2023-02-11T05:28:44.710Z,2.39
2023-02-11T06:26:46.335Z,2.19
2023-02-11T06:33:46.095Z,2.21
2023-02-11T06:34:46.156Z,2.15
2023-02-11T06:35:46.151Z,2.20
2023-02-11T06:36:46.202Z,2.16
2023-02-11T06:37:46.225Z,2.17
2023-02-11T06:38:46.233Z,2.17
2023-02-11T06:39:46.243Z,2.15
2023-02-11T06:40:46.317Z,2.14
2023-02-11T06:41:46.340Z,2.16
2023-02-11T06:42:46.365Z,2.11
2023-02-11T06:43:46.397Z,2.17
2023-02-11T06:44:46.389Z,2.14
2023-02-11T06:45:46.439Z,2.15
2023-02-11T06:46:46.587Z,2.13
2023-02-11T06:47:46.501Z,2.10
2023-02-11T06:48:46.525Z,2.17
2023-02-11T06:49:46.596Z,2.17
2023-02-11T06:50:46.644Z,2.12
2023-02-11T06:51:46.626Z,2.13
2023-02-11T06:52:46.643Z,2.14
2023-02-11T06:53:46.651Z,2.13
2023-02-11T06:54:46.691Z,2.13
2023-02-11T06:55:46.699Z,2.12
2023-02-11T06:56:46.779Z,2.10
2023-02-11T06:57:46.798Z,2.14
2023-02-11T06:58:46.784Z,2.07
2023-02-11T06:59:46.823Z,2.13
2023-02-11T07:00:46.882Z,2.09
2023-02-11T07:01:46.923Z,2.11
2023-02-11T07:02:46.955Z,2.10
2023-02-11T07:03:46.948Z,2.04
2023-02-11T07:04:46.956Z,2.09
2023-02-11T07:05:46.999Z,2.06
2023-02-11T07:06:46.998Z,2.07
2023-02-11T07:07:47.060Z,2.07
2023-02-11T07:08:47.046Z,2.07
2023-02-11T07:09:47.098Z,2.05
2023-02-11T07:10:47.121Z,2.07
2023-02-11T07:11:47.146Z,2.08
2023-02-11T07:12:47.159Z,2.06
2023-02-11T07:13:47.217Z,2.03
2023-02-11T07:14:47.233Z,2.05
2023-02-11T07:15:47.246Z,2.05
2023-02-11T07:16:47.288Z,2.06
2023-02-11T07:17:47.324Z,2.03
2023-02-11T07:18:47.449Z,2.01
2023-02-11T07:19:47.368Z,2.04
2023-02-11T07:20:47.366Z,2.04
2023-02-11T07:21:47.438Z,2.02
2023-02-11T07:22:47.389Z,2.07
2023-02-11T07:23:47.448Z,2.05
2023-02-11T07:24:47.447Z,2.01
2023-02-11T07:25:47.585Z,2.06
2023-02-11T07:26:47.540Z,1.98
2023-02-11T07:27:47.522Z,2.06
2023-02-11T07:28:47.537Z,2.00
2023-02-11T07:29:47.594Z,1.99
2023-02-11T07:30:47.615Z,2.00
2023-02-11T07:31:47.747Z,2.02
2023-02-11T07:32:47.620Z,1.96
2023-02-11T07:33:47.664Z,2.00
2023-02-11T07:34:47.729Z,2.02
2023-02-11T07:35:47.770Z,1.98
2023-02-11T07:36:47.752Z,1.97
2023-02-11T07:37:47.694Z,1.92
2023-02-11T07:38:47.685Z,1.96
2023-02-11T07:39:47.737Z,1.99
2023-02-11T07:40:47.736Z,1.96
2023-02-11T07:41:47.820Z,1.98
2023-02-11T07:42:47.779Z,1.96
2023-02-11T07:43:47.797Z,1.93
2023-02-11T07:44:50.362Z,1.94
2023-02-11T07:45:47.861Z,1.97
2023-02-11T07:46:47.888Z,2.00
2023-02-11T07:47:47.837Z,1.98
2023-02-11T07:48:47.787Z,1.98
2023-02-11T07:49:47.769Z,1.97
2023-02-11T07:50:47.784Z,1.96
2023-02-11T07:51:47.775Z,1.98
2023-02-11T07:52:47.767Z,1.99
2023-02-11T07:53:47.756Z,1.96
2023-02-11T07:54:47.724Z,1.99
2023-02-11T07:55:47.793Z,1.95
2023-02-11T07:56:47.802Z,1.97
2023-02-11T07:57:47.727Z,1.96
2023-02-11T07:58:47.727Z,1.98
2023-02-11T07:59:47.702Z,1.98
2023-02-11T08:00:47.670Z,1.96
2023-02-11T08:01:47.679Z,1.93
2023-02-11T08:02:47.728Z,1.94
2023-02-11T08:03:47.669Z,1.97
2023-02-11T08:04:47.676Z,1.94
2023-02-11T08:05:47.663Z,1.96
2023-02-11T08:06:47.699Z,1.94
2023-02-11T08:07:47.655Z,1.93
2023-02-11T08:08:47.619Z,1.91
2023-02-11T08:09:47.670Z,1.94
2023-02-11T08:10:47.688Z,1.93
2023-02-11T08:11:47.615Z,1.91
2023-02-11T08:12:47.628Z,1.92
2023-02-11T08:13:47.615Z,1.88
2023-02-11T08:14:47.593Z,1.89
2023-02-11T08:15:47.634Z,1.88
2023-02-11T08:16:47.722Z,1.91
2023-02-11T08:17:47.621Z,1.89
2023-02-11T08:18:47.592Z,1.94
2023-02-11T08:19:47.587Z,1.93
2023-02-11T08:20:47.607Z,1.90
2023-02-11T08:21:47.585Z,1.88
2023-02-11T08:22:47.550Z,1.91
2023-02-11T08:23:47.565Z,1.85
2023-02-11T08:24:47.564Z,1.91
2023-02-11T08:25:47.571Z,1.83
2023-02-11T08:26:47.587Z,1.89
2023-02-11T08:27:47.522Z,1.82
2023-02-11T08:28:47.526Z,1.87
2023-02-11T08:29:47.526Z,1.84
2023-02-11T08:30:47.519Z,1.87
2023-02-11T08:31:47.564Z,1.88
2023-02-11T08:32:47.519Z,1.86
2023-02-11T08:33:47.483Z,1.86
2023-02-11T08:34:47.469Z,1.87
2023-02-11T08:35:47.476Z,1.84
2023-02-11T08:36:47.484Z,1.84
2023-02-11T08:37:47.486Z,1.83
2023-02-11T08:38:47.451Z,1.85
2023-02-11T08:39:47.466Z,1.85
2023-02-11T08:40:47.433Z,1.83
2023-02-11T08:41:47.480Z,1.84
2023-02-11T08:42:47.420Z,1.91
2023-02-11T08:43:47.406Z,1.82
2023-02-11T08:44:47.429Z,1.84
2023-02-11T08:45:47.429Z,1.84
2023-02-11T08:46:47.423Z,1.81
2023-02-11T08:47:47.362Z,1.83
2023-02-11T08:48:47.457Z,1.84
2023-02-11T08:49:47.360Z,1.79
2023-02-11T08:50:47.385Z,1.84
2023-02-11T08:51:47.363Z,1.84
2023-02-11T08:52:47.388Z,1.82
2023-02-11T08:53:47.352Z,1.79
2023-02-11T08:54:47.359Z,1.84
2023-02-11T08:55:47.321Z,1.82
2023-02-11T08:56:47.378Z,1.79
2023-02-11T08:57:47.327Z,1.79
2023-02-11T08:58:47.336Z,1.81
2023-02-11T08:59:47.336Z,1.81
2023-02-11T09:00:47.423Z,1.81
2023-02-11T09:01:47.425Z,1.78
2023-02-11T09:02:47.266Z,1.80
2023-02-11T09:03:47.329Z,1.81
2023-02-11T09:04:47.264Z,1.79
2023-02-11T09:05:47.273Z,1.79
2023-02-11T09:06:47.256Z,1.78
2023-02-11T09:07:47.273Z,1.78
2023-02-11T09:08:47.291Z,1.81
2023-02-11T09:09:47.261Z,1.76
2023-02-11T09:10:47.271Z,1.78
2023-02-11T09:11:47.275Z,1.82
2023-02-11T09:12:47.243Z,1.77
2023-02-11T09:13:47.254Z,1.75
2023-02-11T09:14:47.243Z,1.75
2023-02-11T09:15:47.238Z,1.80
2023-02-11T09:16:47.302Z,1.77
2023-02-11T09:17:47.313Z,1.77
2023-02-11T09:18:47.290Z,1.77
2023-02-11T09:19:47.316Z,1.78
2023-02-11T09:20:47.341Z,1.71
2023-02-11T09:21:47.364Z,1.73
2023-02-11T09:22:47.385Z,1.72
2023-02-11T09:23:47.461Z,1.72
2023-02-11T09:24:47.434Z,1.72
2023-02-11T09:25:47.458Z,1.75
2023-02-11T09:26:47.486Z,1.73
2023-02-11T09:27:47.514Z,1.72
2023-02-11T09:28:47.689Z,1.69
2023-02-11T09:29:47.524Z,1.77
2023-02-11T09:30:47.686Z,1.75
2023-02-11T09:31:47.748Z,1.71
2023-02-11T09:32:47.557Z,1.74
2023-02-11T09:33:47.594Z,1.71
2023-02-11T09:34:47.617Z,1.73
2023-02-11T09:35:47.626Z,1.77
2023-02-11T09:36:47.700Z,1.71
2023-02-11T09:37:47.691Z,1.70
2023-02-11T09:38:47.785Z,1.74
2023-02-11T09:39:47.732Z,1.72
2023-02-11T09:40:47.828Z,1.75
2023-02-11T09:41:47.787Z,1.71
2023-02-11T09:42:47.793Z,1.67
2023-02-11T09:43:47.801Z,1.69
2023-02-11T09:44:47.851Z,1.72
2023-02-11T09:45:47.942Z,1.69
2023-02-11T09:46:47.875Z,1.71
2023-02-11T09:47:47.953Z,1.68
2023-02-11T09:48:47.919Z,1.70
2023-02-11T09:49:47.936Z,1.69
2023-02-11T09:50:47.952Z,1.68
2023-02-11T09:51:47.982Z,1.69
2023-02-11T09:52:47.987Z,1.68
2023-02-11T09:53:47.999Z,1.70
2023-02-11T09:54:48.076Z,1.69
2023-02-11T09:55:48.032Z,1.66
2023-02-11T09:56:48.089Z,1.66
2023-02-11T09:57:48.100Z,1.64
2023-02-11T09:58:48.065Z,1.67
2023-02-11T09:59:48.099Z,1.68
2023-02-11T10:00:48.128Z,1.65
2023-02-11T10:01:48.234Z,1.65
2023-02-11T10:02:48.160Z,1.67
2023-02-11T10:03:48.171Z,1.65
2023-02-11T10:04:48.204Z,1.61
2023-02-11T10:05:48.207Z,1.68
2023-02-11T10:06:48.224Z,1.64
2023-02-11T10:07:48.265Z,1.61
2023-02-11T10:08:48.232Z,1.64
2023-02-11T10:09:48.283Z,1.64
2023-02-11T10:10:48.309Z,1.64
2023-02-11T10:11:48.288Z,1.63
2023-02-11T10:12:48.337Z,1.65
2023-02-11T10:13:48.340Z,1.66
2023-02-11T10:14:48.371Z,1.59
2023-02-11T10:15:48.495Z,1.61
2023-02-11T10:16:48.442Z,1.60
2023-02-11T10:17:48.404Z,1.60
2023-02-11T10:18:48.389Z,1.63
2023-02-11T10:19:48.446Z,1.63
2023-02-11T10:20:48.695Z,1.63
2023-02-11T10:21:48.470Z,1.61
2023-02-11T10:22:48.476Z,1.57
2023-02-11T10:23:48.608Z,1.61
2023-02-11T10:24:48.503Z,1.60
2023-02-11T10:25:48.520Z,1.61
2023-02-11T10:26:48.526Z,1.60
2023-02-11T10:27:48.555Z,1.55
2023-02-11T10:28:48.557Z,1.56
2023-02-11T10:29:48.548Z,1.55
2023-02-11T10:30:48.711Z,1.60
2023-02-11T10:31:48.683Z,1.57
2023-02-11T10:32:48.594Z,1.56
2023-02-11T10:33:48.599Z,1.56
2023-02-11T10:34:48.597Z,1.55
2023-02-11T10:35:48.588Z,1.55
2023-02-11T10:36:48.616Z,1.59
2023-02-11T10:37:48.599Z,1.55
2023-02-11T10:38:48.609Z,1.53
2023-02-11T10:39:48.621Z,1.55
2023-02-11T10:40:48.804Z,1.56
2023-02-11T10:41:48.670Z,1.54
2023-02-11T10:42:48.717Z,1.57
2023-02-11T10:43:48.667Z,1.56
2023-02-11T10:44:48.688Z,1.57
2023-02-11T10:45:48.739Z,1.53
2023-02-11T10:46:48.756Z,1.55
2023-02-11T10:47:48.742Z,1.54
2023-02-11T10:48:48.745Z,1.58
2023-02-11T10:49:48.749Z,1.59
2023-02-11T10:50:48.993Z,1.57
2023-02-11T10:51:48.807Z,1.58
2023-02-11T10:52:48.812Z,1.52
2023-02-11T10:53:48.813Z,1.55
2023-02-11T10:54:48.826Z,1.57
2023-02-11T10:55:48.850Z,1.55
2023-02-11T10:56:48.858Z,1.53
2023-02-11T10:57:48.861Z,1.56
2023-02-11T10:58:48.850Z,1.58
2023-02-11T10:59:48.876Z,1.55
2023-02-11T11:00:49.094Z,1.54
2023-02-11T11:01:48.919Z,1.55
2023-02-11T11:02:48.894Z,1.53
2023-02-11T11:03:48.910Z,1.55
2023-02-11T11:04:48.928Z,1.56
2023-02-11T11:05:48.876Z,1.55
2023-02-11T11:06:48.922Z,1.58
2023-02-11T11:07:48.887Z,1.53
2023-02-11T11:08:48.872Z,1.51
2023-02-11T11:09:48.896Z,1.54
2023-02-11T11:10:49.128Z,1.58
2023-02-11T11:11:48.904Z,1.52
2023-02-11T11:12:48.973Z,1.53
2023-02-11T11:13:48.903Z,1.52
2023-02-11T11:14:48.928Z,1.52
2023-02-11T11:15:48.916Z,1.50
2023-02-11T11:16:48.941Z,1.56
2023-02-11T11:17:48.947Z,1.53
2023-02-11T11:18:48.948Z,1.53
2023-02-11T11:19:48.880Z,1.54
2023-02-11T11:20:49.225Z,1.52
2023-02-11T11:21:48.897Z,1.49
2023-02-11T11:22:48.935Z,1.50
2023-02-11T11:23:48.949Z,1.52
2023-02-11T11:24:48.943Z,1.51
2023-02-11T11:25:48.949Z,1.52
2023-02-11T11:26:48.965Z,1.50
2023-02-11T11:27:48.941Z,1.55
2023-02-11T11:28:48.948Z,1.50
2023-02-11T11:29:48.981Z,1.49
2023-02-11T11:30:49.348Z,1.51
2023-02-11T11:31:49.036Z,1.49
2023-02-11T11:32:48.895Z,1.49
2023-02-11T11:33:48.960Z,1.50
2023-02-11T11:34:48.908Z,1.53
2023-02-11T11:35:48.956Z,1.53
2023-02-11T11:36:48.981Z,1.50
2023-02-11T11:37:48.944Z,1.49
2023-02-11T11:38:48.938Z,1.49
2023-02-11T11:39:48.917Z,1.49
2023-02-11T11:40:49.273Z,1.52
2023-02-11T11:41:48.933Z,1.49
2023-02-11T11:42:48.925Z,1.51
2023-02-11T11:43:48.941Z,1.49
2023-02-11T11:44:48.948Z,1.46
2023-02-11T11:45:48.943Z,1.47
2023-02-11T11:46:49.011Z,1.49
2023-02-11T11:47:48.977Z,1.48
2023-02-11T11:48:48.975Z,1.47
2023-02-11T11:49:48.980Z,1.49
2023-02-11T11:50:49.252Z,1.48
2023-02-11T11:51:49.014Z,1.48
2023-02-11T11:52:48.990Z,1.51
2023-02-11T11:53:48.986Z,1.46
2023-02-11T11:54:48.977Z,1.46
2023-02-11T11:55:48.952Z,1.45
2023-02-11T11:56:48.981Z,1.47
2023-02-11T11:57:49.007Z,1.47
2023-02-11T11:58:48.937Z,1.48
2023-02-11T11:59:48.951Z,1.51
2023-02-11T12:00:49.355Z,1.48
2023-02-11T12:01:48.991Z,1.44
2023-02-11T12:02:49.091Z,1.48
2023-02-11T12:03:48.976Z,1.47
2023-02-11T12:04:48.962Z,1.48
2023-02-11T12:05:48.974Z,1.47
2023-02-11T12:06:48.984Z,1.47
2023-02-11T12:07:48.986Z,1.44
2023-02-11T12:08:48.983Z,1.47
2023-02-11T12:09:48.981Z,1.43
2023-02-11T12:10:49.192Z,1.42
2023-02-11T12:11:48.972Z,1.40
2023-02-11T12:12:48.983Z,1.43
2023-02-11T12:13:48.988Z,1.46
2023-02-11T12:14:48.931Z,1.45
2023-02-11T12:15:48.950Z,1.44
2023-02-11T12:16:49.011Z,1.44
2023-02-11T12:17:48.945Z,1.44
2023-02-11T12:18:48.991Z,1.43
2023-02-11T12:19:48.963Z,1.45
2023-02-11T12:20:49.276Z,1.44
2023-02-11T12:21:48.956Z,1.44
2023-02-11T12:23:48.974Z,1.45
2023-02-11T12:27:48.944Z,1.43
2023-02-11T12:28:48.996Z,1.48
2023-02-11T12:29:48.946Z,1.43
2023-02-11T12:30:49.384Z,1.44
2023-02-11T12:31:49.121Z,1.43
2023-02-11T12:32:48.976Z,1.45
2023-02-11T12:33:48.980Z,1.47
2023-02-11T12:34:49.002Z,1.44
2023-02-11T12:35:48.964Z,1.41
2023-02-11T12:36:48.998Z,1.40
2023-02-11T12:37:49.005Z,1.39
2023-02-11T12:38:49.012Z,1.44
2023-02-11T12:39:49.029Z,1.41
2023-02-11T12:40:49.234Z,1.44
2023-02-11T12:41:49.031Z,1.43
2023-02-11T12:42:49.015Z,1.43
2023-02-11T12:43:49.010Z,1.42
2023-02-11T12:44:48.995Z,1.42
2023-02-11T12:45:49.011Z,1.46
2023-02-11T12:46:49.037Z,1.39
2023-02-11T12:47:49.040Z,1.44
2023-02-11T12:48:48.999Z,1.40
2023-02-11T12:49:49.064Z,1.39
2023-02-11T12:50:49.457Z,1.41
2023-02-11T12:51:49.054Z,1.38
2023-02-11T12:52:49.049Z,1.41
2023-02-11T12:53:49.041Z,1.40
2023-02-11T12:54:49.085Z,1.40
2023-02-11T12:55:49.050Z,1.41
2023-02-11T12:56:49.097Z,1.39
2023-02-11T12:57:49.038Z,1.38
2023-02-11T12:58:49.082Z,1.42
2023-02-11T12:59:49.037Z,1.39
2023-02-11T13:00:49.440Z,1.36
2023-02-11T13:01:49.071Z,1.39
2023-02-11T13:02:49.131Z,1.39
2023-02-11T13:03:49.079Z,1.36
2023-02-11T13:04:49.094Z,1.39
2023-02-11T13:05:49.102Z,1.40
2023-02-11T13:06:49.093Z,1.37
2023-02-11T13:07:49.128Z,1.37
2023-02-11T13:08:49.096Z,1.38
2023-02-11T13:09:49.090Z,1.37
2023-02-11T13:10:49.539Z,1.36
2023-02-11T13:11:49.109Z,1.40
2023-02-11T13:12:49.104Z,1.36
2023-02-11T13:13:49.093Z,1.37
2023-02-11T13:14:49.131Z,1.35
2023-02-11T13:15:49.126Z,1.36
2023-02-11T13:16:49.163Z,1.37
2023-02-11T13:17:49.148Z,1.35
2023-02-11T13:18:49.152Z,1.37
2023-02-11T13:19:49.125Z,1.38
2023-02-11T13:20:49.541Z,1.38
2023-02-11T13:21:49.172Z,1.37
2023-02-11T13:22:49.180Z,1.36
2023-02-11T13:23:49.202Z,1.35
2023-02-11T13:24:49.169Z,1.34
2023-02-11T13:25:49.175Z,1.35
2023-02-11T13:26:49.176Z,1.36
2023-02-11T13:27:49.190Z,1.35
2023-02-11T13:28:49.139Z,1.38
2023-02-11T13:29:49.214Z,1.35
2023-02-11T13:30:49.608Z,1.34
2023-02-11T13:31:49.292Z,1.37
2023-02-11T13:32:49.214Z,1.36
2023-02-11T13:33:49.232Z,1.35
2023-02-11T13:34:49.189Z,1.36
2023-02-11T13:35:49.211Z,1.33
2023-02-11T13:36:49.216Z,1.32
2023-02-11T13:37:49.182Z,1.33
2023-02-11T13:38:49.231Z,1.34
2023-02-11T13:39:49.244Z,1.37
2023-02-11T13:40:49.542Z,1.34
2023-02-11T13:41:51.590Z,1.34
2023-02-11T13:42:49.184Z,1.34
2023-02-11T13:43:49.187Z,1.30
2023-02-11T13:44:49.233Z,1.33
2023-02-11T13:45:49.252Z,1.32
2023-02-11T13:46:49.178Z,1.30
2023-02-11T13:47:52.408Z,1.32
2023-02-11T13:48:49.155Z,1.32
2023-02-11T13:49:49.155Z,1.32
2023-02-11T13:50:49.380Z,1.32
2023-02-11T13:51:49.170Z,1.31
2023-02-11T13:52:49.208Z,1.31
2023-02-11T13:53:49.151Z,1.32
2023-02-11T13:54:49.165Z,1.32
2023-02-11T13:55:49.118Z,1.35
2023-02-11T13:56:49.116Z,1.30
2023-02-11T13:57:49.107Z,1.32
2023-02-11T13:58:49.124Z,1.29
2023-02-11T13:59:49.131Z,1.29
2023-02-11T14:00:49.680Z,1.29
2023-02-11T14:01:49.570Z,1.32
2023-02-11T14:02:49.264Z,1.29
2023-02-11T14:03:49.093Z,1.30
2023-02-11T14:04:49.234Z,1.31
2023-02-11T14:05:49.030Z,1.30
2023-02-11T14:06:49.076Z,1.30
2023-02-11T14:07:49.042Z,1.28
2023-02-11T14:08:49.026Z,1.28
2023-02-11T14:09:49.039Z,1.29
2023-02-11T14:10:49.324Z,1.29
2023-02-11T14:11:49.054Z,1.30
2023-02-11T14:12:48.994Z,1.31
2023-02-11T14:13:49.005Z,1.28
2023-02-11T14:14:49.030Z,1.31
2023-02-11T14:15:49.013Z,1.31
2023-02-11T14:16:48.983Z,1.29
2023-02-11T14:17:48.984Z,1.31
2023-02-11T14:18:48.955Z,1.30
2023-02-11T14:19:48.949Z,1.28
2023-02-11T14:20:49.200Z,1.30
2023-02-11T14:21:48.975Z,1.27
2023-02-11T14:22:48.950Z,1.30
2023-02-11T14:23:48.931Z,1.29
2023-02-11T14:24:48.950Z,1.32
2023-02-11T14:25:48.885Z,1.30
2023-02-11T14:26:48.892Z,1.27
2023-02-11T14:27:48.879Z,1.26
2023-02-11T14:28:48.926Z,1.28
2023-02-11T14:29:48.888Z,1.32
2023-02-11T14:30:49.139Z,1.28
2023-02-11T14:31:49.075Z,1.29
2023-02-11T14:32:48.962Z,1.29
2023-02-11T14:33:48.853Z,1.28
2023-02-11T14:34:48.856Z,1.29
2023-02-11T14:35:48.859Z,1.31
2023-02-11T14:36:48.877Z,1.25
2023-02-11T14:37:50.740Z,1.30
2023-02-11T14:38:49.004Z,1.28
2023-02-11T14:39:48.822Z,1.26
2023-02-11T14:40:48.970Z,1.29
2023-02-11T14:41:48.809Z,1.28
2023-02-11T14:42:48.803Z,1.25
2023-02-11T14:43:48.817Z,1.26
2023-02-11T14:44:48.829Z,1.24
2023-02-11T14:45:48.844Z,1.24
2023-02-11T14:46:48.793Z,1.26
2023-02-11T14:47:48.789Z,1.27
2023-02-11T14:48:48.792Z,1.23
2023-02-11T15:41:49.427Z,1.19
2023-02-11T15:42:53.126Z,1.17
2023-02-11T15:43:49.394Z,1.18
2023-02-11T15:44:56.377Z,1.18
2023-02-11T15:46:49.488Z,1.18
2023-02-11T15:47:49.357Z,1.19
2023-02-11T15:48:49.354Z,1.19
2023-02-11T15:49:49.356Z,1.24
2023-02-11T15:50:49.662Z,1.22
2023-02-11T15:51:49.377Z,1.18
2023-02-11T15:52:49.482Z,1.21
2023-02-11T15:53:49.310Z,1.19
2023-02-11T15:54:49.331Z,1.21
2023-02-11T15:55:49.305Z,1.22
2023-02-11T15:56:49.314Z,1.19
2023-02-11T15:57:49.275Z,1.19
2023-02-11T15:58:49.289Z,1.17
2023-02-11T15:59:49.304Z,1.16
2023-02-11T16:00:49.750Z,1.18
2023-02-11T16:01:49.350Z,1.17
2023-02-11T16:02:49.289Z,1.17
2023-02-11T16:03:49.280Z,1.18
2023-02-11T19:11:56.114Z,1.04
2023-02-11T19:12:56.165Z,1.03
2023-02-11T19:13:56.221Z,1.05
2023-02-11T19:14:56.266Z,1.03
2023-02-11T19:15:56.348Z,1.00
2023-02-11T19:16:56.493Z,1.02
2023-02-11T19:17:56.421Z,1.03
2023-02-11T19:18:56.537Z,1.04
2023-02-11T19:19:56.572Z,1.03
2023-02-11T19:20:56.572Z,1.06